createdAt,value
2023-04-10T00:00:07.024Z,27.30
2023-04-10T00:01:07.038Z,27.26
2023-04-10T00:02:07.106Z,27.37
2023-04-10T00:03:07.197Z,27.29
2023-04-10T00:04:07.151Z,27.29
2023-04-10T00:05:07.176Z,27.27
2023-04-10T00:06:07.018Z,27.30
2023-04-10T00:07:07.012Z,27.33
2023-04-10T00:08:07.030Z,27.34
2023-04-10T00:09:07.025Z,27.33
2023-04-10T00:10:07.001Z,27.26
2023-04-10T00:11:06.995Z,27.30
2023-04-10T00:12:06.976Z,27.28
2023-04-10T00:13:07.007Z,27.28
2023-04-10T00:14:07.002Z,27.28
2023-04-10T00:15:06.991Z,27.31
2023-04-10T00:16:07.008Z,27.30
2023-04-10T00:17:07.003Z,27.29
2023-04-10T00:18:07.051Z,27.30
2023-04-10T00:19:07.007Z,27.27
2023-04-10T00:20:06.976Z,27.26
2023-04-10T00:21:06.996Z,27.30
2023-04-10T00:22:06.943Z,27.30
2023-04-10T00:23:06.981Z,27.28
2023-04-10T00:24:07.035Z,27.28
2023-04-10T00:25:07.013Z,27.34
2023-04-10T00:26:07.045Z,27.28
2023-04-10T00:27:07.009Z,27.30
2023-04-10T00:28:07.026Z,27.30
2023-04-10T00:29:07.020Z,27.27
2023-04-10T00:30:06.997Z,27.28
2023-04-10T00:31:07.001Z,27.31
2023-04-10T00:32:07.142Z,27.30
2023-04-10T00:33:07.084Z,27.24
2023-04-10T00:34:06.976Z,27.27
2023-04-10T00:35:06.986Z,27.28
2023-04-10T00:36:07.071Z,27.27
2023-04-10T00:37:07.034Z,27.28
2023-04-10T00:38:06.983Z,27.37
2023-04-10T00:39:06.988Z,27.31
2023-04-10T00:40:07.006Z,27.28
2023-04-10T00:41:06.960Z,27.28
2023-04-10T00:42:06.957Z,27.27
2023-04-10T00:43:06.958Z,27.29
2023-04-10T00:44:06.975Z,27.34
2023-04-10T00:45:06.999Z,27.29
2023-04-10T00:46:07.099Z,27.31
2023-04-10T00:47:06.992Z,27.29
2023-04-10T00:48:06.998Z,27.31
2023-04-10T00:49:06.968Z,27.28
2023-04-10T00:50:06.957Z,27.25
2023-04-10T00:51:06.953Z,27.29
2023-04-10T00:52:06.941Z,27.28
2023-04-10T00:53:06.980Z,27.29
2023-04-10T00:54:06.920Z,27.29
2023-04-10T00:55:06.957Z,27.27
2023-04-10T00:56:06.971Z,27.27
2023-04-10T00:57:06.956Z,27.25
2023-04-10T00:58:06.957Z,27.26
2023-04-10T00:59:07.396Z,27.27
2023-04-10T01:00:06.933Z,27.22
2023-04-10T01:01:06.934Z,27.27
2023-04-10T01:02:06.973Z,27.28
2023-04-10T01:03:07.016Z,27.25
2023-04-10T01:04:07.020Z,27.26
2023-04-10T01:05:06.919Z,27.24
2023-04-10T01:06:06.918Z,27.29
2023-04-10T01:07:06.928Z,27.25
2023-04-10T01:08:06.908Z,27.27
2023-04-10T01:09:06.919Z,27.25
2023-04-10T01:10:06.936Z,27.28
2023-04-10T01:11:06.906Z,27.25
2023-04-10T01:12:06.926Z,27.26
2023-04-10T01:13:06.957Z,27.29
2023-04-10T01:14:06.922Z,27.21
2023-04-10T01:15:06.902Z,27.23
2023-04-10T01:16:06.917Z,27.28
2023-04-10T01:17:07.137Z,27.26
2023-04-10T01:18:06.926Z,27.22
2023-04-10T01:19:06.932Z,27.26
2023-04-10T01:20:06.949Z,27.23
2023-04-10T01:21:06.919Z,27.16
2023-04-10T01:22:06.970Z,27.21
2023-04-10T01:23:06.932Z,27.21
2023-04-10T01:24:06.925Z,27.25
2023-04-10T01:25:06.930Z,27.29
2023-04-10T01:26:06.952Z,27.23
2023-04-10T01:27:06.914Z,27.23
2023-04-10T01:28:06.925Z,27.23
2023-04-10T01:29:06.910Z,27.25
2023-04-10T01:30:06.907Z,27.23
2023-04-10T01:31:06.938Z,27.25
2023-04-10T01:32:06.935Z,27.28
2023-04-10T01:33:06.938Z,27.25
2023-04-10T01:34:06.938Z,27.23
2023-04-10T01:35:06.906Z,27.23
2023-04-10T01:36:06.965Z,27.26
2023-04-10T01:37:06.930Z,27.25
2023-04-10T01:38:06.919Z,27.28
2023-04-10T01:39:06.934Z,27.23
2023-04-10T01:40:06.965Z,27.26
2023-04-10T01:41:06.949Z,27.28
2023-04-10T01:42:06.955Z,27.22
2023-04-10T01:43:06.958Z,27.22
2023-04-10T01:44:06.962Z,27.28
2023-04-10T01:45:06.937Z,27.22
2023-04-10T01:46:07.020Z,27.25
2023-04-10T01:47:06.984Z,27.25
2023-04-10T01:48:07.038Z,27.26
2023-04-10T01:49:07.004Z,27.23
2023-04-10T01:50:06.993Z,27.25
2023-04-10T01:51:06.987Z,27.26
2023-04-10T01:52:07.031Z,27.28
2023-04-10T01:53:06.971Z,27.23
2023-04-10T01:54:07.198Z,27.29
2023-04-10T01:55:06.994Z,27.23
2023-04-10T01:56:07.010Z,27.19
2023-04-10T01:57:06.989Z,27.22
2023-04-10T01:58:06.978Z,27.23
2023-04-10T01:59:07.012Z,27.23
2023-04-10T02:00:07.048Z,27.23
2023-04-10T02:01:07.664Z,27.25
2023-04-10T02:02:07.032Z,27.24
2023-04-10T02:03:07.138Z,27.23
2023-04-10T02:04:07.119Z,27.20
2023-04-10T02:05:07.061Z,27.23
2023-04-10T02:06:07.025Z,27.23
2023-04-10T02:07:07.020Z,27.21
2023-04-10T02:08:07.026Z,27.17
2023-04-10T02:09:07.041Z,27.19
2023-04-10T02:10:07.043Z,27.20
2023-04-10T02:11:07.062Z,27.20
2023-04-10T02:12:07.065Z,27.20
2023-04-10T02:13:07.083Z,27.17
2023-04-10T02:14:07.037Z,27.20
2023-04-10T02:15:07.066Z,27.21
2023-04-10T02:16:07.116Z,27.22
2023-04-10T02:17:07.062Z,27.20
2023-04-10T02:18:07.097Z,27.19
2023-04-10T02:19:07.052Z,27.19
2023-04-10T02:20:07.069Z,27.20
2023-04-10T02:21:07.081Z,27.19
2023-04-10T02:22:07.089Z,27.16
2023-04-10T02:23:07.064Z,27.21
2023-04-10T02:24:07.089Z,27.18
2023-04-10T02:25:07.106Z,27.21
2023-04-10T02:26:07.123Z,27.17
2023-04-10T02:27:07.142Z,27.14
2023-04-10T02:28:07.117Z,27.17
2023-04-10T02:29:07.120Z,27.14
2023-04-10T02:30:07.130Z,27.14
2023-04-10T02:31:07.217Z,27.20
2023-04-10T02:32:07.146Z,27.18
2023-04-10T02:33:07.172Z,27.13
2023-04-10T02:34:07.148Z,27.14
2023-04-10T02:35:07.172Z,27.14
2023-04-10T02:36:07.245Z,27.19
2023-04-10T02:37:07.222Z,27.20
2023-04-10T02:38:07.203Z,27.16
2023-04-10T02:39:07.212Z,27.09
2023-04-10T02:40:07.202Z,27.17
2023-04-10T02:41:07.244Z,27.11
2023-04-10T02:42:07.284Z,27.16
2023-04-10T02:43:07.254Z,27.14
2023-04-10T02:44:07.264Z,27.13
2023-04-10T02:45:07.293Z,27.18
2023-04-10T02:46:07.274Z,27.16
2023-04-10T02:47:07.392Z,27.11
2023-04-10T02:48:07.317Z,27.14
2023-04-10T02:49:07.312Z,27.12
2023-04-10T02:50:07.316Z,27.14
2023-04-10T02:51:07.314Z,27.12
2023-04-10T02:52:07.359Z,27.12
2023-04-10T02:53:07.455Z,27.14
2023-04-10T02:54:07.341Z,27.12
2023-04-10T02:55:07.384Z,27.12
2023-04-10T02:56:07.392Z,27.14
2023-04-10T02:57:07.399Z,27.10
2023-04-10T02:58:07.417Z,27.08
2023-04-10T02:59:07.416Z,27.11
2023-04-10T03:00:07.448Z,27.12
2023-04-10T03:01:07.427Z,27.05
2023-04-10T03:02:07.546Z,27.14
2023-04-10T03:03:07.640Z,27.08
2023-04-10T03:04:07.664Z,27.12
2023-04-10T03:05:07.470Z,27.12
2023-04-10T03:06:08.045Z,27.10
2023-04-10T03:07:07.506Z,27.14
2023-04-10T03:08:07.529Z,27.11
2023-04-10T03:09:07.549Z,27.11
2023-04-10T03:10:07.513Z,27.14
2023-04-10T03:11:07.543Z,27.08
2023-04-10T03:12:07.525Z,27.10
2023-04-10T03:13:07.568Z,27.08
2023-04-10T03:14:07.575Z,27.12
2023-04-10T03:15:07.592Z,27.08
2023-04-10T03:16:07.631Z,27.12
2023-04-10T03:17:07.605Z,27.12
2023-04-10T03:18:07.654Z,27.10
2023-04-10T03:19:07.669Z,27.10
2023-04-10T03:20:07.613Z,27.06
2023-04-10T03:21:07.910Z,27.06
2023-04-10T03:22:07.660Z,27.06
2023-04-10T03:23:07.645Z,27.12
2023-04-10T03:24:07.700Z,27.05
2023-04-10T03:25:07.663Z,27.12
2023-04-10T03:26:07.708Z,27.11
2023-04-10T03:27:07.696Z,27.08
2023-04-10T03:28:07.727Z,27.11
2023-04-10T03:29:07.723Z,27.06
2023-04-10T03:30:07.748Z,27.06
2023-04-10T03:31:07.806Z,27.10
2023-04-10T03:32:07.773Z,27.05
2023-04-10T03:33:07.803Z,27.11
2023-04-10T03:34:07.811Z,27.10
2023-04-10T03:35:07.817Z,27.04
2023-04-10T03:36:07.849Z,27.05
2023-04-10T03:37:07.853Z,27.04
2023-04-10T03:38:07.880Z,27.05
2023-04-10T03:39:07.873Z,27.06
2023-04-10T03:40:07.869Z,27.09
2023-04-10T03:41:07.937Z,27.06
2023-04-10T03:42:07.942Z,27.04
2023-04-10T03:43:07.907Z,27.11
2023-04-10T03:44:07.935Z,27.10
2023-04-10T03:45:07.964Z,27.05
2023-04-10T03:46:07.959Z,27.06
2023-04-10T03:47:08.114Z,27.06
2023-04-10T03:48:08.054Z,27.10
2023-04-10T03:49:08.028Z,27.06
2023-04-10T03:50:08.040Z,27.06
2023-04-10T03:51:08.041Z,27.02
2023-04-10T03:52:08.060Z,27.04
2023-04-10T03:53:08.059Z,27.10
2023-04-10T03:54:08.089Z,27.02
2023-04-10T03:55:08.111Z,27.09
2023-04-10T03:56:08.130Z,27.09
2023-04-10T03:57:08.116Z,27.05
2023-04-10T03:58:08.144Z,27.05
2023-04-10T03:59:08.159Z,27.01
2023-04-10T04:00:08.187Z,27.05
2023-04-10T04:01:08.193Z,27.06
2023-04-10T04:02:08.267Z,27.01
2023-04-10T04:03:08.702Z,27.05
2023-04-10T04:04:08.335Z,27.04
2023-04-10T04:05:08.361Z,27.06
2023-04-10T04:06:08.278Z,27.03
2023-04-10T04:07:08.269Z,27.04
2023-04-10T04:08:08.264Z,27.01
2023-04-10T04:09:08.304Z,26.99
2023-04-10T04:10:08.342Z,27.04
2023-04-10T04:11:08.329Z,27.03
2023-04-10T04:12:08.329Z,26.99
2023-04-10T04:13:08.362Z,27.04
2023-04-10T04:14:08.392Z,26.98
2023-04-10T04:15:08.399Z,26.99
2023-04-10T04:16:08.454Z,27.05
2023-04-10T04:17:08.408Z,27.03
2023-04-10T04:18:08.481Z,27.02
2023-04-10T04:19:08.471Z,27.03
2023-04-10T04:20:08.452Z,27.00
2023-04-10T04:21:08.466Z,27.05
2023-04-10T04:22:08.558Z,26.99
2023-04-10T04:23:08.506Z,27.03
2023-04-10T04:24:08.527Z,27.03
2023-04-10T04:25:08.545Z,27.02
2023-04-10T04:26:08.567Z,26.99
2023-04-10T04:27:08.578Z,27.03
2023-04-10T04:28:08.597Z,27.05
2023-04-10T04:29:08.626Z,27.03
2023-04-10T04:30:08.616Z,26.98
2023-04-10T04:31:08.634Z,26.99
2023-04-10T04:32:08.811Z,27.03
2023-04-10T04:33:08.730Z,27.03
2023-04-10T04:34:08.731Z,27.02
2023-04-10T04:35:08.730Z,27.03
2023-04-10T04:36:08.800Z,26.99
2023-04-10T04:37:08.737Z,27.00
2023-04-10T04:38:08.802Z,27.03
2023-04-10T04:39:08.785Z,27.00
2023-04-10T04:40:08.820Z,27.03
2023-04-10T04:41:08.840Z,26.96
2023-04-10T04:42:08.855Z,27.00
2023-04-10T04:43:08.909Z,26.99
2023-04-10T04:44:08.897Z,26.99
2023-04-10T04:45:08.928Z,26.96
2023-04-10T04:46:08.983Z,26.97
2023-04-10T04:47:08.931Z,26.96
2023-04-10T04:48:08.954Z,27.02
2023-04-10T04:49:08.997Z,26.99
2023-04-10T04:50:09.005Z,26.96
2023-04-10T04:51:09.030Z,27.00
2023-04-10T04:52:09.021Z,26.95
2023-04-10T04:53:09.028Z,26.97
2023-04-10T04:54:09.074Z,26.96
2023-04-10T04:55:09.065Z,26.95
2023-04-10T04:56:09.126Z,26.97
2023-04-10T04:57:09.128Z,26.97
2023-04-10T04:58:09.177Z,26.95
2023-04-10T04:59:09.165Z,26.97
2023-04-10T05:00:09.167Z,26.98
2023-04-10T05:01:09.293Z,26.98
2023-04-10T05:02:09.285Z,26.97
2023-04-10T05:03:09.403Z,26.92
2023-04-10T05:04:09.402Z,26.92
2023-04-10T05:05:09.262Z,26.97
2023-04-10T05:06:09.308Z,26.90
2023-04-10T05:07:09.294Z,26.92
2023-04-10T05:08:09.295Z,26.95
2023-04-10T05:09:09.313Z,26.96
2023-04-10T05:10:09.324Z,26.93
2023-04-10T05:11:09.316Z,26.90
2023-04-10T05:12:09.386Z,26.87
2023-04-10T05:13:09.402Z,26.92
2023-04-10T05:14:09.400Z,26.90
2023-04-10T05:15:09.405Z,26.90
2023-04-10T05:16:09.481Z,26.95
2023-04-10T05:17:09.450Z,26.89
2023-04-10T05:18:09.550Z,26.95
2023-04-10T05:19:09.434Z,26.92
2023-04-10T05:20:09.483Z,26.90
2023-04-10T05:21:09.473Z,26.88
2023-04-10T05:22:09.506Z,26.90
2023-04-10T05:23:09.536Z,26.90
2023-04-10T05:24:09.542Z,26.90
2023-04-10T05:25:09.530Z,26.87
2023-04-10T05:26:09.567Z,26.92
2023-04-10T05:27:09.578Z,26.92
2023-04-10T05:28:09.596Z,26.92
2023-04-10T05:29:09.610Z,26.86
2023-04-10T05:30:09.613Z,26.90
2023-04-10T05:31:09.670Z,26.93
2023-04-10T05:32:09.646Z,26.93
2023-04-10T05:33:09.638Z,26.90
2023-04-10T05:34:09.640Z,26.89
2023-04-10T05:35:09.644Z,26.92
2023-04-10T05:36:09.718Z,26.86
2023-04-10T05:37:09.678Z,26.84
2023-04-10T05:38:09.732Z,26.86
2023-04-10T05:39:09.698Z,26.86
2023-04-10T05:40:09.727Z,26.82
2023-04-10T05:41:09.722Z,26.88
2023-04-10T05:42:09.775Z,26.83
2023-04-10T05:43:09.784Z,26.83
2023-04-10T05:44:09.806Z,26.83
2023-04-10T05:45:09.802Z,26.86
2023-04-10T05:46:09.865Z,26.82
2023-04-10T05:47:09.858Z,26.85
2023-04-10T05:48:09.847Z,26.85
2023-04-10T05:49:09.904Z,26.82
2023-04-10T05:50:09.884Z,26.83
2023-04-10T05:51:09.922Z,26.84
2023-04-10T05:52:09.892Z,26.88
2023-04-10T05:53:09.924Z,26.80
2023-04-10T05:54:09.968Z,26.83
2023-04-10T05:55:09.972Z,26.82
2023-04-10T05:56:09.986Z,26.80
2023-04-10T05:57:09.998Z,26.79
2023-04-10T05:58:10.012Z,26.82
2023-04-10T05:59:09.985Z,26.80
2023-04-10T06:00:10.017Z,26.82
2023-04-10T06:01:10.121Z,26.78
2023-04-10T06:02:10.096Z,26.80
2023-04-10T06:03:10.130Z,26.79
2023-04-10T06:04:10.180Z,26.82
2023-04-10T06:05:10.095Z,26.78
2023-04-10T06:06:10.078Z,26.78
2023-04-10T06:07:10.120Z,26.73
2023-04-10T06:08:10.159Z,26.79
2023-04-10T06:09:10.140Z,26.79
2023-04-10T06:10:10.133Z,26.74
2023-04-10T06:11:10.151Z,26.79
2023-04-10T06:12:10.183Z,26.74
2023-04-10T06:13:11.200Z,26.78
2023-04-10T06:14:10.180Z,26.75
2023-04-10T06:15:10.178Z,26.78
2023-04-10T06:16:10.222Z,26.75
2023-04-10T06:17:10.181Z,26.77
2023-04-10T06:18:10.190Z,26.74
2023-04-10T06:19:10.200Z,26.78
2023-04-10T06:20:10.215Z,26.75
2023-04-10T06:21:10.221Z,26.78
2023-04-10T06:22:10.222Z,26.74
2023-04-10T06:23:10.282Z,26.72
2023-04-10T06:24:12.687Z,26.75
2023-04-10T06:25:10.413Z,26.75
2023-04-10T06:26:10.406Z,26.75
2023-04-10T06:27:10.420Z,26.72
2023-04-10T06:28:10.444Z,26.69
2023-04-10T06:29:10.428Z,26.74
2023-04-10T06:30:10.479Z,26.77
2023-04-10T06:31:10.490Z,26.72
2023-04-10T06:32:10.495Z,26.75
2023-04-10T06:33:10.449Z,26.72
2023-04-10T06:34:10.504Z,26.70
2023-04-10T06:35:10.481Z,26.74
2023-04-10T06:36:10.501Z,26.74
2023-04-10T06:37:10.530Z,26.68
2023-04-10T06:38:10.502Z,26.73
2023-04-10T06:39:10.519Z,26.70
2023-04-10T06:40:10.492Z,26.70
2023-04-10T06:41:10.537Z,26.73
2023-04-10T06:42:10.562Z,26.61
2023-04-10T06:43:10.575Z,26.69
2023-04-10T06:44:10.543Z,26.68
2023-04-10T06:45:10.555Z,26.68
2023-04-10T06:46:10.585Z,26.70
2023-04-10T06:47:10.622Z,26.66
2023-04-10T06:48:10.607Z,26.64
2023-04-10T06:49:10.627Z,26.66
2023-04-10T06:50:10.602Z,26.67
2023-04-10T06:51:10.601Z,26.61
2023-04-10T06:52:10.637Z,26.70
2023-04-10T06:53:10.600Z,26.64
2023-04-10T06:54:10.595Z,26.64
2023-04-10T06:55:10.633Z,26.60
2023-04-10T06:56:10.624Z,26.67
2023-04-10T06:57:11.105Z,26.60
2023-04-10T06:58:10.673Z,26.64
2023-04-10T06:59:10.632Z,26.57
2023-04-10T07:00:10.631Z,26.61
2023-04-10T07:01:10.657Z,26.59
2023-04-10T07:02:10.683Z,26.57
2023-04-10T07:03:10.678Z,26.59
2023-04-10T07:04:10.706Z,26.56
2023-04-10T07:05:10.636Z,26.52
2023-04-10T07:06:10.662Z,26.55
2023-04-10T07:07:10.666Z,26.49
2023-04-10T07:08:10.642Z,26.47
2023-04-10T07:09:10.659Z,26.45
2023-04-10T07:10:10.835Z,26.48
2023-04-10T07:11:10.673Z,26.51
2023-04-10T07:12:10.660Z,26.51
2023-04-10T07:13:10.648Z,26.51
2023-04-10T07:14:10.624Z,26.49
2023-04-10T07:15:10.633Z,26.46
2023-04-10T07:16:10.665Z,26.42
2023-04-10T07:17:10.638Z,26.47
2023-04-10T07:18:10.622Z,26.39
2023-04-10T07:19:10.609Z,26.43
2023-04-10T07:20:10.623Z,26.45
2023-04-10T07:21:10.593Z,26.43
2023-04-10T07:22:10.593Z,26.41
2023-04-10T07:23:10.607Z,26.37
2023-04-10T07:24:10.580Z,26.40
2023-04-10T07:25:10.570Z,26.35
2023-04-10T07:26:10.578Z,26.43
2023-04-10T07:27:10.606Z,26.43
2023-04-10T07:28:10.572Z,26.47
2023-04-10T07:29:10.590Z,26.40
2023-04-10T07:30:12.966Z,26.39
2023-04-10T07:31:10.631Z,26.39
2023-04-10T07:32:10.757Z,26.40
2023-04-10T07:33:10.670Z,26.39
2023-04-10T07:34:10.534Z,26.43
2023-04-10T07:35:10.578Z,26.38
2023-04-10T07:36:10.557Z,26.42
2023-04-10T07:37:10.519Z,26.38
2023-04-10T07:38:10.529Z,26.38
2023-04-10T07:39:10.508Z,26.30
2023-04-10T07:40:10.507Z,26.29
2023-04-10T07:41:10.464Z,26.35
2023-04-10T07:42:10.481Z,26.31
2023-04-10T07:43:10.471Z,26.31
2023-04-10T07:44:10.471Z,26.29
2023-04-10T07:45:10.459Z,26.28
2023-04-10T07:46:10.508Z,26.26
2023-04-10T07:47:10.452Z,26.31
2023-04-10T07:48:10.431Z,26.27
2023-04-10T07:49:10.439Z,26.25
2023-04-10T07:50:10.436Z,26.27
2023-04-10T07:51:10.406Z,26.22
2023-04-10T07:52:10.432Z,26.27
2023-04-10T07:53:10.432Z,26.23
2023-04-10T07:54:10.380Z,26.23
2023-04-10T07:55:10.403Z,26.21
2023-04-10T07:56:10.408Z,26.23
2023-04-10T07:57:10.407Z,26.21
2023-04-10T07:58:10.372Z,26.17
2023-04-10T07:59:10.355Z,26.20
2023-04-10T08:00:10.398Z,26.19
2023-04-10T08:01:10.335Z,26.17
2023-04-10T08:02:10.432Z,26.19
2023-04-10T08:03:10.796Z,26.22
2023-04-10T08:04:10.470Z,26.19
2023-04-10T08:05:10.361Z,26.16
2023-04-10T08:06:10.420Z,26.16
2023-04-10T08:07:10.307Z,26.14
2023-04-10T08:08:10.329Z,26.16
2023-04-10T08:09:10.328Z,26.13
2023-04-10T08:10:10.317Z,26.14
2023-04-10T08:11:10.295Z,26.12
2023-04-10T08:12:10.318Z,26.16
2023-04-10T08:13:10.272Z,26.10
2023-04-10T08:14:10.306Z,26.10
2023-04-10T08:15:10.258Z,26.12
2023-04-10T08:16:10.315Z,26.12
2023-04-10T08:17:10.336Z,26.10
2023-04-10T08:18:10.278Z,26.09
2023-04-10T08:19:10.339Z,26.10
2023-04-10T08:20:10.393Z,26.12
2023-04-10T08:21:10.435Z,26.12
2023-04-10T08:22:10.557Z,26.11
2023-04-10T08:24:10.613Z,26.12
2023-04-10T08:25:10.565Z,26.09
2023-04-10T08:26:10.591Z,26.09
2023-04-10T08:27:10.566Z,26.12
2023-04-10T08:28:10.548Z,26.07
2023-04-10T08:29:10.529Z,26.05
2023-04-10T08:30:10.589Z,26.04
2023-04-10T08:31:10.594Z,26.08
2023-04-10T08:32:10.581Z,26.13
2023-04-10T08:33:10.535Z,26.08
2023-04-10T08:34:10.516Z,26.04
2023-04-10T08:35:10.515Z,26.10
2023-04-10T08:36:10.506Z,26.05
2023-04-10T08:37:11.901Z,26.03
2023-04-10T08:38:13.937Z,26.04
2023-04-10T08:39:10.500Z,26.08
2023-04-10T08:40:10.483Z,26.08
2023-04-10T08:41:10.432Z,26.03
2023-04-10T08:42:10.439Z,26.08
2023-04-10T08:43:10.535Z,26.04
2023-04-10T08:44:10.457Z,26.07
2023-04-10T08:45:10.427Z,26.06
2023-04-10T08:46:10.510Z,26.07
2023-04-10T08:47:10.419Z,26.06
2023-04-10T08:48:10.429Z,26.07
2023-04-10T08:49:10.407Z,26.03
2023-04-10T08:50:10.381Z,26.07
2023-04-10T08:51:15.577Z,26.03
2023-04-10T08:52:11.378Z,26.06
2023-04-10T08:53:10.376Z,26.01
2023-04-10T08:54:10.391Z,26.03
2023-04-10T08:55:10.372Z,26.05
2023-04-10T08:56:10.395Z,26.09
2023-04-10T08:57:11.155Z,26.06
2023-04-10T08:58:10.349Z,26.02
2023-04-10T08:59:10.381Z,26.02
2023-04-10T09:01:11.340Z,25.98
2023-04-10T09:02:10.446Z,25.99
2023-04-10T09:03:10.497Z,25.99
2023-04-10T09:04:10.455Z,25.95
2023-04-10T09:05:10.334Z,25.98
2023-04-10T09:06:10.325Z,25.96
2023-04-10T09:07:10.549Z,25.95
2023-04-10T09:08:10.263Z,25.98
2023-04-10T09:09:10.262Z,25.96
2023-04-10T09:10:10.262Z,25.96
2023-04-10T09:11:10.254Z,25.97
2023-04-10T09:12:10.226Z,25.95
2023-04-10T09:13:10.278Z,25.92
2023-04-10T09:14:10.329Z,25.94
2023-04-10T09:15:10.370Z,25.96
2023-04-10T09:16:10.453Z,25.97
2023-04-10T09:17:10.431Z,25.96
2023-04-10T09:18:10.493Z,25.95
2023-04-10T09:19:10.506Z,25.96
2023-04-10T09:20:10.560Z,25.90
2023-04-10T09:21:10.589Z,25.98
2023-04-10T09:22:10.606Z,25.97
2023-04-10T09:23:10.653Z,25.93
2023-04-10T09:24:10.686Z,25.93
2023-04-10T09:25:10.686Z,25.96
2023-04-10T09:26:10.761Z,25.93
2023-04-10T09:27:10.813Z,25.94
2023-04-10T09:28:10.829Z,25.90
2023-04-10T09:29:10.868Z,25.93
2023-04-10T09:30:10.864Z,25.91
2023-04-10T09:31:10.906Z,25.89
2023-04-10T09:32:10.951Z,25.93
2023-04-10T09:33:11.013Z,25.95
2023-04-10T09:34:11.002Z,25.95
2023-04-10T09:35:11.150Z,25.91
2023-04-10T09:36:11.105Z,25.91
2023-04-10T09:37:11.106Z,25.89
2023-04-10T09:38:11.128Z,25.92
2023-04-10T09:39:11.165Z,25.86
2023-04-10T09:40:11.185Z,25.86
2023-04-10T09:41:11.208Z,25.89
2023-04-10T09:42:11.294Z,25.86
2023-04-10T09:43:11.300Z,25.89
2023-04-10T09:44:11.306Z,25.86
2023-04-10T09:45:11.302Z,25.85
2023-04-10T09:46:11.409Z,25.83
2023-04-10T09:47:11.351Z,25.86
2023-04-10T09:48:11.416Z,25.86
2023-04-10T09:49:11.401Z,25.81
2023-04-10T09:50:11.437Z,25.82
2023-04-10T09:51:11.489Z,25.81
2023-04-10T09:52:11.517Z,25.79
2023-04-10T09:53:11.563Z,25.84
2023-04-10T09:54:11.569Z,25.79
2023-04-10T09:55:11.596Z,25.76
2023-04-10T09:56:11.585Z,25.78
2023-04-10T09:57:11.628Z,25.78
2023-04-10T09:58:11.641Z,25.81
2023-04-10T09:59:11.638Z,25.77
2023-04-10T10:00:11.645Z,25.77
2023-04-10T10:01:11.709Z,25.74
2023-04-10T10:02:11.773Z,25.76
2023-04-10T10:03:12.035Z,25.67
2023-04-10T10:04:11.740Z,25.73
2023-04-10T10:05:11.959Z,25.73
2023-04-10T10:06:11.819Z,25.73
2023-04-10T10:07:11.794Z,25.77
2023-04-10T10:08:11.811Z,25.68
2023-04-10T10:09:11.833Z,25.69
2023-04-10T10:10:11.839Z,25.67
2023-04-10T10:11:11.870Z,25.64
2023-04-10T10:12:11.860Z,25.66
2023-04-10T10:13:11.873Z,25.63
2023-04-10T10:14:11.913Z,25.65
2023-04-10T10:15:11.989Z,25.64
2023-04-10T10:16:11.917Z,25.59
2023-04-10T10:17:11.920Z,25.63
2023-04-10T10:18:11.955Z,25.63
2023-04-10T10:19:11.959Z,25.60
2023-04-10T10:20:11.954Z,25.55
2023-04-10T10:21:11.975Z,25.56
2023-04-10T10:22:12.002Z,25.60
2023-04-10T10:23:11.976Z,25.55
2023-04-10T10:24:12.000Z,25.59
2023-04-10T10:25:12.018Z,25.56
2023-04-10T10:26:12.017Z,25.54
2023-04-10T10:27:12.019Z,25.58
2023-04-10T10:28:12.034Z,25.52
2023-04-10T10:29:12.051Z,25.66
2023-04-10T10:30:28.078Z,25.57
2023-04-10T10:31:13.128Z,25.44
2023-04-10T10:32:12.115Z,25.35
2023-04-10T10:33:12.092Z,25.34
2023-04-10T10:34:12.093Z,25.40
2023-04-10T10:35:12.101Z,25.37
2023-04-10T10:36:12.085Z,25.39
2023-04-10T10:37:12.079Z,25.38
2023-04-10T10:38:12.052Z,25.37
2023-04-10T10:39:12.029Z,25.40
2023-04-10T10:40:12.067Z,25.40
2023-04-10T10:41:12.047Z,25.35
2023-04-10T10:42:12.041Z,25.39
2023-04-10T10:43:12.053Z,25.35
2023-04-10T10:44:11.995Z,25.36
2023-04-10T10:45:12.000Z,25.39
2023-04-10T10:46:12.023Z,25.36
2023-04-10T10:47:11.983Z,25.36
2023-04-10T10:48:12.000Z,25.36
2023-04-10T10:49:11.992Z,25.39
2023-04-10T10:50:11.984Z,25.38
2023-04-10T10:51:11.968Z,25.35
2023-04-10T10:52:11.960Z,25.36
2023-04-10T10:53:11.970Z,25.38
2023-04-10T10:54:11.952Z,25.33
2023-04-10T10:55:11.959Z,25.38
2023-04-10T10:56:11.961Z,25.35
2023-04-10T10:57:11.912Z,25.35
2023-04-10T10:58:11.936Z,25.33
2023-04-10T10:59:11.922Z,25.35
2023-04-10T11:00:11.898Z,25.35
2023-04-10T11:01:11.945Z,25.33
2023-04-10T11:02:11.968Z,25.38
2023-04-10T11:03:12.015Z,25.33
2023-04-10T11:04:11.898Z,25.35
2023-04-10T11:05:11.858Z,25.33
2023-04-10T11:06:11.881Z,25.36
2023-04-10T11:07:11.864Z,25.34
2023-04-10T11:08:11.854Z,25.34
2023-04-10T11:09:11.862Z,25.38
2023-04-10T11:10:11.825Z,25.35
2023-04-10T11:11:11.815Z,25.31
2023-04-10T11:12:11.850Z,25.34
2023-04-10T11:13:11.833Z,25.28
2023-04-10T11:14:11.794Z,25.31
2023-04-10T11:15:11.794Z,25.31
2023-04-10T11:16:11.821Z,25.32
2023-04-10T11:17:12.810Z,25.32
2023-04-10T11:18:11.819Z,25.30
2023-04-10T11:19:14.703Z,25.33
2023-04-10T11:20:11.782Z,25.36
2023-04-10T11:21:11.792Z,25.34
2023-04-10T11:22:11.771Z,25.31
2023-04-10T11:23:11.934Z,25.33
2023-04-10T11:24:11.762Z,25.31
2023-04-10T11:25:11.770Z,25.33
2023-04-10T11:26:11.736Z,25.36
2023-04-10T11:27:11.761Z,25.41
2023-04-10T11:28:11.737Z,25.36
2023-04-10T11:29:11.723Z,25.34
2023-04-10T11:30:11.707Z,25.37
2023-04-10T11:31:11.738Z,25.36
2023-04-10T11:32:11.724Z,25.34
2023-04-10T11:33:11.682Z,25.31
2023-04-10T11:34:11.698Z,25.36
2023-04-10T11:35:11.709Z,25.37
2023-04-10T11:36:11.649Z,25.37
2023-04-10T11:37:11.656Z,25.37
2023-04-10T11:38:11.684Z,25.33
2023-04-10T11:39:11.674Z,25.34
2023-04-10T11:40:11.664Z,25.34
2023-04-10T11:41:11.673Z,25.36
2023-04-10T11:42:11.650Z,25.36
2023-04-10T11:43:11.648Z,25.37
2023-04-10T11:44:11.667Z,25.38
2023-04-10T11:45:11.630Z,25.36
2023-04-10T11:46:11.615Z,25.34
2023-04-10T11:47:11.629Z,25.40
2023-04-10T11:48:11.606Z,25.36
2023-04-10T11:49:11.615Z,25.33
2023-04-10T11:50:11.588Z,25.33
2023-04-10T11:51:11.582Z,25.37
2023-04-10T11:52:11.585Z,25.34
2023-04-10T11:53:11.556Z,25.32
2023-04-10T11:54:11.534Z,25.32
2023-04-10T11:55:11.583Z,25.35
2023-04-10T11:56:11.535Z,25.36
2023-04-10T11:57:11.548Z,25.37
2023-04-10T11:58:11.540Z,25.34
2023-04-10T11:59:11.511Z,25.28
2023-04-10T12:00:11.528Z,25.33
2023-04-10T12:01:11.492Z,25.33
2023-04-10T12:02:11.612Z,25.35
2023-04-10T12:03:11.650Z,25.36
2023-04-10T12:04:11.656Z,25.37
2023-04-10T12:05:11.579Z,25.32
2023-04-10T12:06:11.491Z,25.32
2023-04-10T12:07:11.618Z,25.36
2023-04-10T12:08:11.537Z,25.36
2023-04-10T12:09:11.576Z,25.35
2023-04-10T12:10:11.669Z,25.36
2023-04-10T12:11:11.748Z,25.35
2023-04-10T12:12:11.819Z,25.39
2023-04-10T12:13:11.832Z,25.33
2023-04-10T12:14:11.943Z,25.33
2023-04-10T12:15:12.012Z,25.32
2023-04-10T12:16:12.105Z,25.41
2023-04-10T12:17:13.610Z,25.35
2023-04-10T12:18:12.184Z,25.33
2023-04-10T12:19:12.225Z,25.36
2023-04-10T12:20:12.344Z,25.37
2023-04-10T12:21:12.367Z,25.31
2023-04-10T12:22:12.375Z,25.36
2023-04-10T12:23:12.502Z,25.36
2023-04-10T12:24:12.532Z,25.32
2023-04-10T12:25:12.578Z,25.35
2023-04-10T12:26:12.698Z,25.38
2023-04-10T12:27:12.757Z,25.38
2023-04-10T12:28:12.811Z,25.26
2023-04-10T12:29:12.890Z,25.31
2023-04-10T12:30:12.913Z,25.31
2023-04-10T12:31:13.051Z,25.33
2023-04-10T12:32:13.069Z,25.35
2023-04-10T12:33:13.105Z,25.32
2023-04-10T12:34:13.174Z,25.29
2023-04-10T12:35:13.262Z,25.38
2023-04-10T12:36:13.295Z,25.32
2023-04-10T12:37:13.380Z,25.32
2023-04-10T12:38:13.421Z,25.32
2023-04-10T12:39:13.506Z,25.35
2023-04-10T12:40:13.585Z,25.35
2023-04-10T12:41:13.602Z,25.33
2023-04-10T12:42:13.752Z,25.32
2023-04-10T12:43:13.782Z,25.32
2023-04-10T12:44:13.838Z,25.32
2023-04-10T12:45:14.092Z,25.35
2023-04-10T12:46:14.005Z,25.33
2023-04-10T12:47:14.025Z,25.35
2023-04-10T12:48:14.081Z,25.33
2023-04-10T12:49:14.155Z,25.31
2023-04-10T12:50:14.220Z,25.31
2023-04-10T12:51:14.327Z,25.33
2023-04-10T12:52:14.328Z,25.31
2023-04-10T12:53:15.217Z,25.35
2023-04-10T12:54:14.450Z,25.35